sensor_id;sensor_type;location;lat;lon;timestamp;pressure;altitude;pressure_sealevel;temperature;humidity
59103;BME280;43999;51.660;5.616;2023-01-29T00:01:08;102844.69;;;-1.08;100.00
59103;BME280;43999;51.660;5.616;2023-01-29T00:03:37;102840.28;;;-1.12;100.00
59103;BME280;43999;51.660;5.616;2023-01-29T00:06:13;102834.19;;;-1.16;100.00
59103;BME280;43999;51.660;5.616;2023-01-29T00:09:04;102824.50;;;-1.24;100.00
59103;BME280;43999;51.660;5.616;2023-01-29T00:11:45;102833.00;;;-1.27;100.00
59103;BME280;43999;51.660;5.616;2023-01-29T00:14:14;102830.31;;;-1.33;100.00
59103;BME280;43999;51.660;5.616;2023-01-29T00:16:44;102833.59;;;-1.37;100.00
59103;BME280;43999;51.660;5.616;2023-01-29T00:19:15;102822.34;;;-1.42;100.00
59103;BME280;43999;51.660;5.616;2023-01-29T00:21:45;102817.91;;;-1.47;100.00
59103;BME280;43999;51.660;5.616;2023-01-29T00:24:13;102817.03;;;-1.49;100.00
59103;BME280;43999;51.660;5.616;2023-01-29T00:26:42;102817.78;;;-1.51;100.00
59103;BME280;43999;51.660;5.616;2023-01-29T00:29:12;102814.28;;;-1.55;100.00
59103;BME280;43999;51.660;5.616;2023-01-29T00:31:44;102812.38;;;-1.60;100.00
59103;BME280;43999;51.660;5.616;2023-01-29T00:34:16;102809.78;;;-1.62;100.00
59103;BME280;43999;51.660;5.616;2023-01-29T00:36:45;102819.97;;;-1.65;100.00
59103;BME280;43999;51.660;5.616;2023-01-29T00:39:15;102816.50;;;-1.67;100.00
59103;BME280;43999;51.660;5.616;2023-01-29T00:41:47;102799.19;;;-1.73;100.00
59103;BME280;43999;51.660;5.616;2023-01-29T00:44:35;102810.34;;;-1.72;100.00
59103;BME280;43999;51.660;5.616;2023-01-29T00:47:23;102794.81;;;-1.75;100.00
59103;BME280;43999;51.660;5.616;2023-01-29T00:50:03;102787.09;;;-1.75;100.00
59103;BME280;43999;51.660;5.616;2023-01-29T00:52:31;102783.59;;;-1.79;100.00
59103;BME280;43999;51.660;5.616;2023-01-29T00:55:00;102778.44;;;-1.79;100.00
59103;BME280;43999;51.660;5.616;2023-01-29T00:57:30;102770.56;;;-1.85;100.00
59103;BME280;43999;51.660;5.616;2023-01-29T01:00:13;102774.88;;;-1.84;100.00
59103;BME280;43999;51.660;5.616;2023-01-29T01:02:46;102769.75;;;-1.84;100.00
59103;BME280;43999;51.660;5.616;2023-01-29T01:05:34;102773.94;;;-1.86;100.00
59103;BME280;43999;51.660;5.616;2023-01-29T01:08:06;102786.81;;;-1.86;100.00
59103;BME280;43999;51.660;5.616;2023-01-29T01:11:03;102785.03;;;-1.89;100.00
59103;BME280;43999;51.660;5.616;2023-01-29T01:13:34;102779.84;;;-1.90;100.00
59103;BME280;43999;51.660;5.616;2023-01-29T01:16:12;102781.53;;;-1.91;100.00
59103;BME280;43999;51.660;5.616;2023-01-29T01:18:43;102781.47;;;-1.92;100.00
59103;BME280;43999;51.660;5.616;2023-01-29T01:21:13;102773.72;;;-1.94;100.00
59103;BME280;43999;51.660;5.616;2023-01-29T01:23:42;102784.00;;;-1.94;100.00
59103;BME280;43999;51.660;5.616;2023-01-29T01:26:19;102790.84;;;-1.94;100.00
59103;BME280;43999;51.660;5.616;2023-01-29T01:28:46;102781.44;;;-1.94;100.00
59103;BME280;43999;51.660;5.616;2023-01-29T01:31:16;102777.16;;;-1.95;100.00
59103;BME280;43999;51.660;5.616;2023-01-29T01:33:54;102783.16;;;-1.94;100.00
59103;BME280;43999;51.660;5.616;2023-01-29T01:36:29;102783.19;;;-1.93;100.00
59103;BME280;43999;51.660;5.616;2023-01-29T01:38:58;102783.19;;;-1.93;100.00
59103;BME280;43999;51.660;5.616;2023-01-29T01:41:33;102789.25;;;-1.91;100.00
59103;BME280;43999;51.660;5.616;2023-01-29T01:44:06;102773.88;;;-1.89;100.00
59103;BME280;43999;51.660;5.616;2023-01-29T01:46:36;102778.19;;;-1.88;100.00
59103;BME280;43999;51.660;5.616;2023-01-29T01:49:24;102778.28;;;-1.85;100.00
59103;BME280;43999;51.660;5.616;2023-01-29T01:51:52;102782.59;;;-1.84;100.00
59103;BME280;43999;51.660;5.616;2023-01-29T01:54:26;102781.78;;;-1.82;100.00
59103;BME280;43999;51.660;5.616;2023-01-29T01:57:09;102775.88;;;-1.79;100.00
59103;BME280;43999;51.660;5.616;2023-01-29T02:00:10;102783.63;;;-1.77;100.00
59103;BME280;43999;51.660;5.616;2023-01-29T02:02:47;102776.78;;;-1.77;100.00
59103;BME280;43999;51.660;5.616;2023-01-29T02:05:34;102788.00;;;-1.75;100.00
59103;BME280;43999;51.660;5.616;2023-01-29T02:09:28;102784.66;;;-1.71;100.00
59103;BME280;43999;51.660;5.616;2023-01-29T02:11:51;102785.53;;;-1.72;100.00
59103;BME280;43999;51.660;5.616;2023-01-29T02:14:22;102789.97;;;-1.65;100.00
59103;BME280;43999;51.660;5.616;2023-01-29T02:16:52;102798.69;;;-1.61;100.00
59103;BME280;43999;51.660;5.616;2023-01-29T02:34:05;102802.91;;;-1.31;100.00
59103;BME280;43999;51.660;5.616;2023-01-29T02:42:33;102793.78;;;-1.20;100.00
59103;BME280;43999;51.660;5.616;2023-01-29T02:45:23;102796.47;;;-1.15;100.00
59103;BME280;43999;51.660;5.616;2023-01-29T02:47:59;102785.41;;;-1.13;100.00
59103;BME280;43999;51.660;5.616;2023-01-29T02:53:38;102786.25;;;-1.12;100.00
59103;BME280;43999;51.660;5.616;2023-01-29T02:57:13;102782.97;;;-1.06;100.00
59103;BME280;43999;51.660;5.616;2023-01-29T02:59:40;102781.25;;;-1.06;100.00
59103;BME280;43999;51.660;5.616;2023-01-29T03:02:16;102786.44;;;-1.04;100.00
59103;BME280;43999;51.660;5.616;2023-01-29T03:04:58;102783.84;;;-1.06;100.00
59103;BME280;43999;51.660;5.616;2023-01-29T03:07:34;102787.28;;;-1.05;100.00
59103;BME280;43999;51.660;5.616;2023-01-29T03:13:42;102789.84;;;-1.05;100.00
59103;BME280;43999;51.660;5.616;2023-01-29T03:16:39;102783.88;;;-1.04;100.00
59103;BME280;43999;51.660;5.616;2023-01-29T03:19:32;102782.13;;;-1.05;100.00
59103;BME280;43999;51.660;5.616;2023-01-29T03:22:09;102786.41;;;-1.06;100.00
59103;BME280;43999;51.660;5.616;2023-01-29T03:24:57;102779.63;;;-1.02;100.00
59103;BME280;43999;51.660;5.616;2023-01-29T03:27:54;102783.19;;;-0.99;100.00
59103;BME280;43999;51.660;5.616;2023-01-29T03:30:47;102776.31;;;-0.98;100.00
59103;BME280;43999;51.660;5.616;2023-01-29T03:33:55;102797.06;;;-0.92;100.00
59103;BME280;43999;51.660;5.616;2023-01-29T03:36:33;102779.97;;;-0.88;100.00
59103;BME280;43999;51.660;5.616;2023-01-29T03:39:07;102773.19;;;-0.86;100.00
59103;BME280;43999;51.660;5.616;2023-01-29T03:48:14;102775.06;;;-0.79;100.00
59103;BME280;43999;51.660;5.616;2023-01-29T03:59:52;102751.97;;;-0.76;100.00
59103;BME280;43999;51.660;5.616;2023-01-29T04:05:30;102730.44;;;-0.80;100.00
59103;BME280;43999;51.660;5.616;2023-01-29T04:08:20;102737.34;;;-0.79;100.00
59103;BME280;43999;51.660;5.616;2023-01-29T04:10:55;102747.63;;;-0.79;100.00
59103;BME280;43999;51.660;5.616;2023-01-29T04:13:40;102741.47;;;-0.84;100.00
59103;BME280;43999;51.660;5.616;2023-01-29T04:16:18;102726.84;;;-0.86;100.00
59103;BME280;43999;51.660;5.616;2023-01-29T04:19:07;102740.63;;;-0.84;100.00
59103;BME280;43999;51.660;5.616;2023-01-29T04:21:44;102731.94;;;-0.89;100.00
59103;BME280;43999;51.660;5.616;2023-01-29T04:24:16;102722.56;;;-0.86;100.00
59103;BME280;43999;51.660;5.616;2023-01-29T04:27:25;102719.09;;;-0.88;100.00
59103;BME280;43999;51.660;5.616;2023-01-29T04:30:32;102723.47;;;-0.84;100.00
59103;BME280;43999;51.660;5.616;2023-01-29T04:38:48;102712.25;;;-0.87;100.00
59103;BME280;43999;51.660;5.616;2023-01-29T04:41:58;102701.88;;;-0.91;100.00
59103;BME280;43999;51.660;5.616;2023-01-29T04:44:59;102695.88;;;-0.91;100.00
59103;BME280;43999;51.660;5.616;2023-01-29T04:50:28;102687.19;;;-0.95;100.00
59103;BME280;43999;51.660;5.616;2023-01-29T04:53:22;102682.03;;;-0.95;100.00
59103;BME280;43999;51.660;5.616;2023-01-29T04:56:20;102671.78;;;-0.93;100.00
59103;BME280;43999;51.660;5.616;2023-01-29T04:59:35;102679.53;;;-0.92;100.00
59103;BME280;43999;51.660;5.616;2023-01-29T05:02:13;102678.78;;;-0.87;100.00
59103;BME280;43999;51.660;5.616;2023-01-29T05:04:43;102676.16;;;-0.89;100.00
59103;BME280;43999;51.660;5.616;2023-01-29T05:07:15;102691.69;;;-0.86;100.00
59103;BME280;43999;51.660;5.616;2023-01-29T05:09:47;102685.75;;;-0.83;100.00
59103;BME280;43999;51.660;5.616;2023-01-29T05:12:18;102685.81;;;-0.80;100.00
59103;BME280;43999;51.660;5.616;2023-01-29T05:14:47;102676.38;;;-0.80;100.00
59103;BME280;43999;51.660;5.616;2023-01-29T05:17:18;102678.13;;;-0.79;100.00
59103;BME280;43999;51.660;5.616;2023-01-29T05:19:47;102671.28;;;-0.78;100.00
59103;BME280;43999;51.660;5.616;2023-01-29T05:22:24;102660.16;;;-0.77;100.00
59103;BME280;43999;51.660;5.616;2023-01-29T05:25:00;102652.50;;;-0.74;100.00
59103;BME280;43999;51.660;5.616;2023-01-29T05:27:34;102662.00;;;-0.70;100.00
59103;BME280;43999;51.660;5.616;2023-01-29T05:30:20;102662.09;;;-0.65;100.00
59103;BME280;43999;51.660;5.616;2023-01-29T05:32:49;102656.16;;;-0.63;100.00
59103;BME280;43999;51.660;5.616;2023-01-29T05:35:16;102648.47;;;-0.61;100.00
59103;BME280;43999;51.660;5.616;2023-01-29T05:37:44;102653.69;;;-0.58;100.00
59103;BME280;43999;51.660;5.616;2023-01-29T05:40:15;102652.00;;;-0.56;100.00
59103;BME280;43999;51.660;5.616;2023-01-29T05:42:44;102667.53;;;-0.53;100.00
59103;BME280;43999;51.660;5.616;2023-01-29T05:45:12;102661.56;;;-0.50;100.00
59103;BME280;43999;51.660;5.616;2023-01-29T05:47:47;102668.50;;;-0.48;100.00
59103;BME280;43999;51.660;5.616;2023-01-29T05:50:17;102664.22;;;-0.47;100.00
59103;BME280;43999;51.660;5.616;2023-01-29T05:52:49;102666.84;;;-0.44;100.00
59103;BME280;43999;51.660;5.616;2023-01-29T05:55:25;102675.50;;;-0.41;100.00
59103;BME280;43999;51.660;5.616;2023-01-29T05:57:53;102683.34;;;-0.36;100.00
59103;BME280;43999;51.660;5.616;2023-01-29T06:00:23;102690.31;;;-0.32;100.00
59103;BME280;43999;51.660;5.616;2023-01-29T06:02:52;102685.13;;;-0.33;100.00
59103;BME280;43999;51.660;5.616;2023-01-29T06:05:21;102686.91;;;-0.31;100.00
59103;BME280;43999;51.660;5.616;2023-01-29T06:07:55;102682.66;;;-0.27;100.00
59103;BME280;43999;51.660;5.616;2023-01-29T06:10:24;102685.31;;;-0.24;100.00
59103;BME280;43999;51.660;5.616;2023-01-29T06:12:52;102693.03;;;-0.24;100.00
59103;BME280;43999;51.660;5.616;2023-01-29T06:15:22;102701.66;;;-0.22;100.00
59103;BME280;43999;51.660;5.616;2023-01-29T06:17:56;102705.19;;;-0.19;100.00
59103;BME280;43999;51.660;5.616;2023-01-29T06:20:33;102704.34;;;-0.17;100.00
59103;BME280;43999;51.660;5.616;2023-01-29T06:23:01;102692.41;;;-0.14;100.00
59103;BME280;43999;51.660;5.616;2023-01-29T06:25:33;102687.25;;;-0.14;100.00
59103;BME280;43999;51.660;5.616;2023-01-29T06:28:09;102668.34;;;-0.13;100.00
59103;BME280;43999;51.660;5.616;2023-01-29T06:30:44;102658.91;;;-0.14;100.00
59103;BME280;43999;51.660;5.616;2023-01-29T06:33:15;102648.59;;;-0.14;100.00
59103;BME280;43999;51.660;5.616;2023-01-29T06:35:49;102652.03;;;-0.13;100.00
59103;BME280;43999;51.660;5.616;2023-01-29T06:38:27;102660.66;;;-0.11;100.00
59103;BME280;43999;51.660;5.616;2023-01-29T06:40:57;102657.22;;;-0.12;100.00
59103;BME280;43999;51.660;5.616;2023-01-29T06:43:29;102664.16;;;-0.09;100.00
59103;BME280;43999;51.660;5.616;2023-01-29T06:46:11;102652.91;;;-0.11;100.00
59103;BME280;43999;51.660;5.616;2023-01-29T06:48:41;102654.66;;;-0.10;100.00
59103;BME280;43999;51.660;5.616;2023-01-29T06:51:15;102666.72;;;-0.09;100.00
59103;BME280;43999;51.660;5.616;2023-01-29T06:53:45;102663.25;;;-0.10;100.00
59103;BME280;43999;51.660;5.616;2023-01-29T06:56:15;102651.25;;;-0.11;100.00
59103;BME280;43999;51.660;5.616;2023-01-29T06:58:48;102643.53;;;-0.09;100.00
59103;BME280;43999;51.660;5.616;2023-01-29T07:01:19;102657.31;;;-0.07;100.00
59103;BME280;43999;51.660;5.616;2023-01-29T07:04:03;102649.56;;;-0.07;100.00
59103;BME280;43999;51.660;5.616;2023-01-29T07:06:33;102650.44;;;-0.07;100.00
59103;BME280;43999;51.660;5.616;2023-01-29T07:09:07;102651.34;;;-0.05;100.00
59103;BME280;43999;51.660;5.616;2023-01-29T07:11:38;102660.84;;;-0.02;100.00
59103;BME280;43999;51.660;5.616;2023-01-29T07:14:09;102663.47;;;0.01;100.00
59103;BME280;43999;51.660;5.616;2023-01-29T07:16:37;102661.75;;;0.02;100.00
59103;BME280;43999;51.660;5.616;2023-01-29T07:19:07;102666.06;;;0.03;100.00
59103;BME280;43999;51.660;5.616;2023-01-29T07:21:44;102672.94;;;0.02;100.00
59103;BME280;43999;51.660;5.616;2023-01-29T07:24:13;102659.19;;;0.03;100.00
59103;BME280;43999;51.660;5.616;2023-01-29T07:26:43;102660.91;;;0.03;100.00
59103;BME280;43999;51.660;5.616;2023-01-29T07:29:13;102652.38;;;0.05;100.00
59103;BME280;43999;51.660;5.616;2023-01-29T07:31:41;102645.56;;;0.09;100.00
59103;BME280;43999;51.660;5.616;2023-01-29T07:34:12;102657.66;;;0.11;100.00
59103;BME280;43999;51.660;5.616;2023-01-29T07:36:40;102641.34;;;0.14;100.00
59103;BME280;43999;51.660;5.616;2023-01-29T07:39:10;102641.38;;;0.15;100.00
59103;BME280;43999;51.660;5.616;2023-01-29T07:41:38;102642.31;;;0.17;100.00
59103;BME280;43999;51.660;5.616;2023-01-29T07:44:16;102644.03;;;0.18;100.00
59103;BME280;43999;51.660;5.616;2023-01-29T07:46:55;102666.38;;;0.18;100.00
59103;BME280;43999;51.660;5.616;2023-01-29T07:49:27;102650.03;;;0.17;100.00
59103;BME280;43999;51.660;5.616;2023-01-29T07:51:58;102650.91;;;0.18;100.00
59103;BME280;43999;51.660;5.616;2023-01-29T07:54:33;102653.59;;;0.24;100.00
59103;BME280;43999;51.660;5.616;2023-01-29T07:57:03;102652.69;;;0.21;100.00
59103;BME280;43999;51.660;5.616;2023-01-29T07:59:31;102642.38;;;0.21;100.00
59103;BME280;43999;51.660;5.616;2023-01-29T08:01:59;102638.09;;;0.23;100.00
59103;BME280;43999;51.660;5.616;2023-01-29T08:04:30;102636.28;;;0.18;100.00
59103;BME280;43999;51.660;5.616;2023-01-29T08:07:00;102641.53;;;0.23;100.00
59103;BME280;43999;51.660;5.616;2023-01-29T08:09:31;102651.88;;;0.25;100.00
59103;BME280;43999;51.660;5.616;2023-01-29T08:12:03;102652.75;;;0.25;100.00
59103;BME280;43999;51.660;5.616;2023-01-29T08:14:35;102649.34;;;0.28;100.00
59103;BME280;43999;51.660;5.616;2023-01-29T08:17:04;102652.88;;;0.31;100.00
59103;BME280;43999;51.660;5.616;2023-01-29T08:19:44;102642.59;;;0.33;100.00
59103;BME280;43999;51.660;5.616;2023-01-29T08:22:15;102638.31;;;0.35;100.00
59103;BME280;43999;51.660;5.616;2023-01-29T08:24:43;102626.31;;;0.37;100.00
59103;BME280;43999;51.660;5.616;2023-01-29T08:27:28;102612.53;;;0.35;100.00
59103;BME280;43999;51.660;5.616;2023-01-29T08:29:57;102610.88;;;0.40;100.00
59103;BME280;43999;51.660;5.616;2023-01-29T08:32:25;102610.06;;;0.43;100.00
59103;BME280;43999;51.660;5.616;2023-01-29T08:35:03;102602.31;;;0.41;100.00
59103;BME280;43999;51.660;5.616;2023-01-29T08:37:34;102602.38;;;0.44;100.00
59103;BME280;43999;51.660;5.616;2023-01-29T08:40:03;102604.88;;;0.41;100.00
59103;BME280;43999;51.660;5.616;2023-01-29T08:42:32;102596.31;;;0.42;100.00
59103;BME280;43999;51.660;5.616;2023-01-29T08:45:00;102589.44;;;0.43;100.00
59103;BME280;43999;51.660;5.616;2023-01-29T08:47:28;102593.78;;;0.45;100.00
59103;BME280;43999;51.660;5.616;2023-01-29T08:49:57;102601.56;;;0.47;100.00
59103;BME280;43999;51.660;5.616;2023-01-29T08:52:29;102605.06;;;0.52;100.00
59103;BME280;43999;51.660;5.616;2023-01-29T08:55:02;102608.53;;;0.54;100.00
59103;BME280;43999;51.660;5.616;2023-01-29T08:57:38;102606.88;;;0.56;100.00
59103;BME280;43999;51.660;5.616;2023-01-29T09:00:11;102610.31;;;0.57;100.00
59103;BME280;43999;51.660;5.616;2023-01-29T09:02:38;102604.28;;;0.56;100.00
59103;BME280;43999;51.660;5.616;2023-01-29T09:05:12;102593.97;;;0.56;100.00
59103;BME280;43999;51.660;5.616;2023-01-29T09:07:41;102592.31;;;0.61;100.00
59103;BME280;43999;51.660;5.616;2023-01-29T09:10:10;102588.91;;;0.62;100.00
59103;BME280;43999;51.660;5.616;2023-01-29T09:12:42;102594.91;;;0.63;100.00
59103;BME280;43999;51.660;5.616;2023-01-29T09:15:10;102589.81;;;0.66;100.00
59103;BME280;43999;51.660;5.616;2023-01-29T09:17:44;102592.41;;;0.67;100.00
59103;BME280;43999;51.660;5.616;2023-01-29T09:20:12;102585.56;;;0.69;100.00
59103;BME280;43999;51.660;5.616;2023-01-29T09:22:53;102592.47;;;0.72;100.00
59103;BME280;43999;51.660;5.616;2023-01-29T09:25:33;102592.50;;;0.74;100.00
59103;BME280;43999;51.660;5.616;2023-01-29T09:28:50;102586.53;;;0.76;100.00
59103;BME280;43999;51.660;5.616;2023-01-29T09:31:30;102588.25;;;0.77;100.00
59103;BME280;43999;51.660;5.616;2023-01-29T09:34:02;102583.13;;;0.79;100.00
59103;BME280;43999;51.660;5.616;2023-01-29T09:36:37;102584.03;;;0.81;100.00
59103;BME280;43999;51.660;5.616;2023-01-29T09:39:06;102593.50;;;0.83;100.00
59103;BME280;43999;51.660;5.616;2023-01-29T09:42:23;102584.13;;;0.87;100.00
59103;BME280;43999;51.660;5.616;2023-01-29T09:45:03;102589.34;;;0.92;100.00
59103;BME280;43999;51.660;5.616;2023-01-29T09:47:35;102585.91;;;0.94;100.00
59103;BME280;43999;51.660;5.616;2023-01-29T09:50:21;102588.59;;;1.00;100.00
59103;BME280;43999;51.660;5.616;2023-01-29T09:53:26;102590.34;;;1.01;100.00
59103;BME280;43999;51.660;5.616;2023-01-29T09:56:03;102588.66;;;1.05;100.00
59103;BME280;43999;51.660;5.616;2023-01-29T09:58:41;102591.28;;;1.08;100.00
59103;BME280;43999;51.660;5.616;2023-01-29T10:01:57;102588.72;;;1.11;100.00
59103;BME280;43999;51.660;5.616;2023-01-29T10:10:34;102589.72;;;1.19;100.00
59103;BME280;43999;51.660;5.616;2023-01-29T10:17:32;102575.25;;;1.34;100.00
59103;BME280;43999;51.660;5.616;2023-01-29T10:26:46;102575.41;;;1.46;100.00
59103;BME280;43999;51.660;5.616;2023-01-29T10:29:34;102579.72;;;1.47;100.00
59103;BME280;43999;51.660;5.616;2023-01-29T10:32:04;102572.84;;;1.46;100.00
59103;BME280;43999;51.660;5.616;2023-01-29T10:34:59;102581.47;;;1.48;100.00
59103;BME280;43999;51.660;5.616;2023-01-29T10:37:41;102582.31;;;1.49;100.00
59103;BME280;43999;51.660;5.616;2023-01-29T10:40:37;102580.63;;;1.51;100.00
59103;BME280;43999;51.660;5.616;2023-01-29T10:44:07;102574.59;;;1.52;100.00
59103;BME280;43999;51.660;5.616;2023-01-29T10:50:24;102565.22;;;1.57;100.00
59103;BME280;43999;51.660;5.616;2023-01-29T11:02:18;102538.56;;;1.66;100.00
59103;BME280;43999;51.660;5.616;2023-01-29T11:04:50;102536.94;;;1.72;100.00
59103;BME280;43999;51.660;5.616;2023-01-29T11:14:02;102511.16;;;1.78;100.00
59103;BME280;43999;51.660;5.616;2023-01-29T11:16:38;102506.06;;;1.86;100.00
59103;BME280;43999;51.660;5.616;2023-01-29T11:19:34;102501.78;;;1.90;100.00
59103;BME280;43999;51.660;5.616;2023-01-29T11:25:19;102484.63;;;2.01;100.00
59103;BME280;43999;51.660;5.616;2023-01-29T11:28:08;102479.47;;;2.03;100.00
59103;BME280;43999;51.660;5.616;2023-01-29T11:31:16;102484.66;;;2.04;100.00
59103;BME280;43999;51.660;5.616;2023-01-29T11:34:20;102478.69;;;2.11;100.00
59103;BME280;43999;51.660;5.616;2023-01-29T11:37:16;102470.94;;;2.13;100.00
59103;BME280;43999;51.660;5.616;2023-01-29T11:39:51;102464.94;;;2.17;100.00
59103;BME280;43999;51.660;5.616;2023-01-29T11:42:38;102458.09;;;2.25;100.00
59103;BME280;43999;51.660;5.616;2023-01-29T11:45:32;102451.19;;;2.24;100.00
59103;BME280;43999;51.660;5.616;2023-01-29T11:48:01;102452.09;;;2.29;100.00
59103;BME280;43999;51.660;5.616;2023-01-29T11:50:33;102451.25;;;2.32;100.00
59103;BME280;43999;51.660;5.616;2023-01-29T11:53:20;102429.69;;;2.30;100.00
59103;BME280;43999;51.660;5.616;2023-01-29T11:56:02;102430.56;;;2.33;100.00
59103;BME280;43999;51.660;5.616;2023-01-29T11:58:33;102426.28;;;2.36;100.00
59103;BME280;43999;51.660;5.616;2023-01-29T12:01:03;102423.69;;;2.39;100.00
59103;BME280;43999;51.660;5.616;2023-01-29T12:03:54;102417.66;;;2.41;100.00
59103;BME280;43999;51.660;5.616;2023-01-29T12:06:34;102410.78;;;2.40;100.00
59103;BME280;43999;51.660;5.616;2023-01-29T12:09:14;102424.59;;;2.47;100.00
59103;BME280;43999;51.660;5.616;2023-01-29T12:12:50;102419.44;;;2.47;100.00
59103;BME280;43999;51.660;5.616;2023-01-29T12:15:21;102410.81;;;2.45;100.00
59103;BME280;43999;51.660;5.616;2023-01-29T12:18:07;102405.63;;;2.43;100.00
59103;BME280;43999;51.660;5.616;2023-01-29T12:21:09;102402.13;;;2.43;100.00
59103;BME280;43999;51.660;5.616;2023-01-29T12:24:03;102390.06;;;2.40;100.00
59103;BME280;43999;51.660;5.616;2023-01-29T12:26:50;102381.44;;;2.40;100.00
59103;BME280;43999;51.660;5.616;2023-01-29T12:32:10;102377.13;;;2.40;100.00
59103;BME280;43999;51.660;5.616;2023-01-29T12:35:43;102359.88;;;2.36;100.00
59103;BME280;43999;51.660;5.616;2023-01-29T12:38:35;102360.72;;;2.35;100.00
59103;BME280;43999;51.660;5.616;2023-01-29T12:41:39;102358.13;;;2.37;100.00
59103;BME280;43999;51.660;5.616;2023-01-29T12:44:25;102355.56;;;2.38;100.00
59103;BME280;43999;51.660;5.616;2023-01-29T12:46:59;102341.75;;;2.36;100.00
59103;BME280;43999;51.660;5.616;2023-01-29T12:49:37;102348.69;;;2.40;100.00
59103;BME280;43999;51.660;5.616;2023-01-29T12:53:06;102348.69;;;2.43;100.00
59103;BME280;43999;51.660;5.616;2023-01-29T12:56:00;102339.22;;;2.45;100.00
59103;BME280;43999;51.660;5.616;2023-01-29T12:58:41;102335.78;;;2.48;100.00
59103;BME280;43999;51.660;5.616;2023-01-29T13:01:33;102333.19;;;2.49;100.00
59103;BME280;43999;51.660;5.616;2023-01-29T13:04:39;102331.47;;;2.50;100.00
59103;BME280;43999;51.660;5.616;2023-01-29T13:07:37;102332.31;;;2.50;100.00
59103;BME280;43999;51.660;5.616;2023-01-29T13:10:37;102324.56;;;2.55;100.00
59103;BME280;43999;51.660;5.616;2023-01-29T13:14:06;102312.53;;;2.60;100.00
59103;BME280;43999;51.660;5.616;2023-01-29T13:16:50;102308.22;;;2.61;100.00
59103;BME280;43999;51.660;5.616;2023-01-29T13:19:39;102308.22;;;2.64;100.00
59103;BME280;43999;51.660;5.616;2023-01-29T13:22:53;102297.00;;;2.62;100.00
59103;BME280;43999;51.660;5.616;2023-01-29T13:25:51;102296.13;;;2.64;100.00
59103;BME280;43999;51.660;5.616;2023-01-29T13:28:30;102286.63;;;2.65;100.00
59103;BME280;43999;51.660;5.616;2023-01-29T13:31:32;102291.81;;;2.66;100.00
59103;BME280;43999;51.660;5.616;2023-01-29T13:37:10;102276.28;;;2.68;100.00
59103;BME280;43999;51.660;5.616;2023-01-29T13:39:54;102275.44;;;2.67;100.00
59103;BME280;43999;51.660;5.616;2023-01-29T13:42:48;102273.69;;;2.65;100.00
59103;BME280;43999;51.660;5.616;2023-01-29T13:45:47;102264.22;;;2.64;100.00
59103;BME280;43999;51.660;5.616;2023-01-29T13:48:57;102266.81;;;2.62;100.00
59103;BME280;43999;51.660;5.616;2023-01-29T13:52:22;102263.38;;;2.62;100.00
59103;BME280;43999;51.660;5.616;2023-01-29T14:01:12;102264.22;;;2.59;100.00
59103;BME280;43999;51.660;5.616;2023-01-29T14:04:27;102259.88;;;2.58;100.00
59103;BME280;43999;51.660;5.616;2023-01-29T14:10:27;102261.59;;;2.51;100.00
59103;BME280;43999;51.660;5.616;2023-01-29T14:18:34;102223.63;;;2.50;100.00
59103;BME280;43999;51.660;5.616;2023-01-29T14:21:26;102230.56;;;2.50;100.00
59103;BME280;43999;51.660;5.616;2023-01-29T14:24:23;102233.16;;;2.53;100.00
59103;BME280;43999;51.660;5.616;2023-01-29T14:27:22;102226.22;;;2.54;100.00
59103;BME280;43999;51.660;5.616;2023-01-29T14:30:07;102222.78;;;2.53;100.00
59103;BME280;43999;51.660;5.616;2023-01-29T14:32:48;102223.63;;;2.50;100.00
59103;BME280;43999;51.660;5.616;2023-01-29T14:35:35;102226.25;;;2.55;100.00
59103;BME280;43999;51.660;5.616;2023-01-29T14:38:27;102217.63;;;2.58;100.00
59103;BME280;43999;51.660;5.616;2023-01-29T14:41:40;102221.94;;;2.59;100.00
59103;BME280;43999;51.660;5.616;2023-01-29T14:47:53;102209.88;;;2.62;100.00
59103;BME280;43999;51.660;5.616;2023-01-29T14:56:03;102203.81;;;2.66;100.00
59103;BME280;43999;51.660;5.616;2023-01-29T14:59:30;102196.06;;;2.66;100.00
59103;BME280;43999;51.660;5.616;2023-01-29T15:02:38;102199.53;;;2.65;100.00
59103;BME280;43999;51.660;5.616;2023-01-29T15:05:38;102200.38;;;2.69;100.00
59103;BME280;43999;51.660;5.616;2023-01-29T15:09:01;102208.16;;;2.72;100.00
59103;BME280;43999;51.660;5.616;2023-01-29T15:12:41;102203.81;;;2.71;100.00
59103;BME280;43999;51.660;5.616;2023-01-29T15:19:54;102197.78;;;2.69;100.00
59103;BME280;43999;51.660;5.616;2023-01-29T15:23:33;102194.34;;;2.65;100.00
59103;BME280;43999;51.660;5.616;2023-01-29T15:26:22;102177.06;;;2.66;100.00
59103;BME280;43999;51.660;5.616;2023-01-29T15:30:05;102172.75;;;2.65;100.00
59103;BME280;43999;51.660;5.616;2023-01-29T15:32:53;102175.34;;;2.68;100.00
59103;BME280;43999;51.660;5.616;2023-01-29T15:35:44;102170.16;;;2.65;100.00
59103;BME280;43999;51.660;5.616;2023-01-29T15:38:41;102172.78;;;2.63;100.00
59103;BME280;43999;51.660;5.616;2023-01-29T15:41:35;102170.19;;;2.63;100.00
59103;BME280;43999;51.660;5.616;2023-01-29T15:44:18;102155.53;;;2.62;100.00
59103;BME280;43999;51.660;5.616;2023-01-29T15:46:59;102155.53;;;2.61;100.00
59103;BME280;43999;51.660;5.616;2023-01-29T15:49:38;102154.66;;;2.60;100.00
59103;BME280;43999;51.660;5.616;2023-01-29T15:52:22;102152.09;;;2.62;100.00
59103;BME280;43999;51.660;5.616;2023-01-29T15:55:05;102143.44;;;2.61;100.00
59103;BME280;43999;51.660;5.616;2023-01-29T15:57:39;102134.81;;;2.59;100.00
59103;BME280;43999;51.660;5.616;2023-01-29T16:00:26;102136.56;;;2.62;100.00
59103;BME280;43999;51.660;5.616;2023-01-29T16:03:36;102130.50;;;2.63;100.00
59103;BME280;43999;51.660;5.616;2023-01-29T16:06:15;102128.78;;;2.63;100.00
59103;BME280;43999;51.660;5.616;2023-01-29T16:09:25;102123.63;;;2.60;100.00